• Join FlightAware (Why Join?)
  • Login
  • US Flag 
09:41PM EDT


 

Airport Tracker/Info


-or-


 

Live Flight TrackerFlight Track Log ✈ AVN11 ✈ 10-Oct-2013 ✈ YSSY / SYD - NVVV / VLI

Flight Track Log - Related Links

Times and Time Zones

All times are in EDT time to prevent confusion due to time zone crossing. See the AVN11 flight status page for this flight to view local times or setup timezone preferences in your user account.

Time Position Orientation Groundspeed Altitude Reporting Facility
EDT Latitude Longitude Course Direction KTS MPH feet Rate Location/Type
09:08PM -33.9630 151.1920 360° North 120 138  Level FlightAware
09:09PM -33.9710 151.1940 168° South 159 183 600 2,280 Climbing FlightAware ADS-B
09:09PM -33.9381 151.1870 350° North 158 182 1,300 2,400 Climbing FlightAware ADS-B
09:09PM -33.9303 151.1919 27° Northeast 172 198 1,700 1,680 Climbing FlightAware ADS-B
09:09PM -33.9261 151.2008 60° Northeast 186 214 1,900 1,500 Climbing FlightAware ADS-B
09:09PM -33.9255 151.2111 86° East 195 224 2,200 1,380 Climbing FlightAware ADS-B
09:10PM -33.9324 151.2317 112° Southeast 224 258 2,600 1,080 Climbing FlightAware ADS-B
09:10PM -33.9367 151.2468 109° East 237 273 2,800 1,080 Climbing FlightAware ADS-B
09:10PM -33.9377 151.2765 92° East 263 303 3,200 1,800 Climbing FlightAware ADS-B
09:11PM -33.9373 151.3040 89° East 272 313 4,000 1,980 Climbing FlightAware ADS-B
09:11PM -33.9359 151.3390 87° East 298 343 4,600 1,380 Climbing FlightAware ADS-B
09:11PM -33.9343 151.3765 87° East 321 369 5,000 1,380 Climbing FlightAware ADS-B
09:12PM -33.9336 151.3941 87° East 333 383 5,300 960 Climbing FlightAware ADS-B
09:12PM -33.9326 151.4231 88° East 361 415 5,400 1,500 Climbing FlightAware ADS-B
09:12PM -33.9313 151.4566 87° East 368 423 6,100 3,060 Climbing FlightAware ADS-B
09:13PM -33.9272 151.5130 85° East 361 415 7,700 3,360 Climbing FlightAware ADS-B
09:13PM -33.9224 151.5341 75° East 358 412 8,600 3,000 Climbing FlightAware ADS-B
09:13PM -33.9115 151.5663 68° East 357 411 9,100 2,520 Climbing FlightAware ADS-B
09:13PM -33.8968 151.6035 65° Northeast 361 415 10,000 2,100 Climbing FlightAware ADS-B
09:14PM -33.8734 151.6636 65° Northeast 379 436 11,000 2,160 Climbing FlightAware ADS-B
09:14PM -33.8501 151.7233 65° Northeast 387 445 12,300 2,460 Climbing FlightAware ADS-B
09:15PM -33.8277 151.7809 65° Northeast 395 455 13,500 2,340 Climbing FlightAware ADS-B
09:15PM -33.8044 151.8407 65° Northeast 406 467 14,800 2,040 Climbing FlightAware ADS-B
09:16PM -33.7720 151.9250 65° Northeast 417 480 16,000 2,220 Climbing FlightAware
09:16PM -33.7648 151.9422 63° Northeast 410 472 16,500 2,580 Climbing FlightAware ADS-B
09:17PM -33.7383 151.9943 59° Northeast 418 481 17,400 1,980 Climbing FlightAware ADS-B
09:17PM -33.7278 152.0102 52° Northeast 419 482 17,700 1,980 Climbing FlightAware ADS-B
09:18PM -33.6490 152.1210 49° Northeast 428 493 19,900 1,980 Climbing FlightAware
09:18PM -33.6100 152.1760 50° Northeast 433 498 20,900 1,860 Climbing FlightAware
09:19PM -33.6385 152.1360 229° Southwest 446 513 22,200 1,200 Climbing FlightAware ADS-B
09:20PM -33.4984 152.3327 229° Southwest 447 514 22,500 900 Climbing Aus ATC (RADAR)
09:20PM -33.4600 152.3850 229° Southwest 478 550 23,200 1,320 Climbing FlightAware
09:21PM -33.4150 152.4490 50° Northeast 489 563 23,900 1,380 Climbing FlightAware
09:21PM -33.3596 152.5259 50° Northeast 484 557 24,800 1,860 Climbing Aus ATC (RADAR)
09:21PM -33.3540 152.5350 50° Northeast 495 570 25,100 1,620 Climbing FlightAware
09:22PM -33.3090 152.5970 49° Northeast 500 575 25,800 1,320 Climbing FlightAware
09:22PM -33.2540 152.6730 49° Northeast 507 583 26,600 1,140 Climbing FlightAware
09:23PM -33.2000 152.7470 49° Northeast 514 592 27,200 960 Climbing FlightAware
09:24PM -33.1400 152.8300 49° Northeast 522 601 27,800 960 Climbing FlightAware
09:24PM -33.0790 152.9150 49° Northeast 528 608 28,500 1,020 Climbing FlightAware
09:25PM -33.0220 152.9930 49° Northeast 533 613 29,100 1,020 Climbing FlightAware
09:26PM -32.9620 153.0760 49° Northeast 538 619 29,800 780 Climbing FlightAware
09:26PM -32.9554 153.0854 49° Northeast 536 617 29,600 1,320 Descending Aus ATC (RADAR)
09:26PM -32.9000 153.1600 49° Northeast 537 618 30,600 1,380 Climbing FlightAware
09:27PM -32.8360 153.2490 49° Northeast 538 619 31,400 1,080 Climbing FlightAware
09:28PM -32.7680 153.3400 48° Northeast 542 624 32,100 840 Climbing FlightAware
09:28PM -32.7100 153.4190 49° Northeast 545 627 32,500 900 Climbing FlightAware
09:29PM -32.6520 153.4990 49° Northeast 542 624 33,200 840 Climbing FlightAware
09:29PM -32.5890 153.5850 49° Northeast 539 620 33,600 1,140 Climbing FlightAware
09:30PM -32.5120 153.6890 49° Northeast 535 616 34,800 1,140 Climbing FlightAware
09:31PM -32.4630 153.7540 48° Northeast 536 617 35,000 120 Climbing FlightAware
09:31PM -32.3970 153.8430 49° Northeast 537 618 35,000  Level FlightAware
09:32PM -32.3460 153.9100 48° Northeast 537 618 35,000  Level FlightAware
09:33PM -32.2733 154.0083 48° Northeast 521 600 35,000  Level Aus ATC (RADAR)
09:33PM -32.2740 154.0070 48° Northeast 537 618 35,000  Level FlightAware
09:33PM -32.2200 154.0790 48° Northeast 539 620 35,000  Level FlightAware
09:34PM -32.1620 154.1570 49° Northeast 539 620 35,000  Level FlightAware
09:34PM -32.1050 154.2330 48° Northeast 539 620 35,000  Level FlightAware
09:35PM -32.0440 154.3130 48° Northeast 538 619 35,000  Level FlightAware
09:35PM -31.9850 154.3920 49° Northeast 538 619 35,000  Level FlightAware
09:36PM -31.9430 154.4470 48° Northeast 538 619 35,000  Level FlightAware
09:37PM -31.8710 154.5420 48° Northeast 536 617 35,000  Level FlightAware
09:37PM -31.8230 154.6050 48° Northeast 536 617 35,000  Level FlightAware
09:38PM -31.7680 154.6770 48° Northeast 536 617 35,000  Level FlightAware
09:38PM -31.7080 154.7560 48° Northeast 534 615 35,000  Level FlightAware
09:39PM -31.6394 154.8463 48° Northeast 513 590 35,000  Level Aus ATC (RADAR)
09:39PM -31.6440 154.8400 48° Northeast 534 615 35,000  Level FlightAware
09:39PM -31.5990 154.8990 48° Northeast 534 615 35,000  Level FlightAware
09:40PM -31.5470 154.9670 48° Northeast 534 615 35,000  Level FlightAware
09:41PM -31.4970 155.0330 48° Northeast 534 615 35,000  Level FlightAware
09:41PM -31.4460 155.0980 48° Northeast 534 615 35,000  Level FlightAware
09:41PM -31.4016 155.1558 48° Northeast 529 609 35,000  Level Aus ATC (RADAR)
09:42PM -31.3950 155.1640 48° Northeast 534 615 35,000  Level FlightAware
09:42PM -31.3430 155.2320 48° Northeast 534 615 35,000  Level FlightAware
09:43PM -31.2960 155.2940 48° Northeast 534 615 35,000 -120 Level FlightAware
09:44PM -31.1764 155.4456 48° Northeast 514 592 34,900  Descending Aus ATC (RADAR)
09:44PM -31.2440 155.3620 48° Northeast 534 615 35,000 120 Climbing FlightAware
09:44PM -31.1930 155.4270 47° Northeast 534 615 35,000  Level FlightAware
09:45PM -31.1420 155.4930 48° Northeast 534 615 35,000  Level FlightAware
09:45PM -31.0920 155.5590 49° Northeast 534 615 35,000  Level FlightAware
09:46PM -30.9380 155.7520 47° Northeast 535 616 35,000  Level FlightAware
09:47PM -30.8630 155.8480 48° Northeast 535 616 35,000  Level FlightAware
09:48PM -30.8080 155.9160 47° Northeast 535 616 35,000  Level FlightAware
09:48PM -30.7550 155.9820 47° Northeast 535 616 35,000  Level FlightAware
09:49PM -30.7040 156.0470 48° Northeast 535 616 35,000  Level FlightAware
09:49PM -30.6104 156.1802 48° Northeast 531 611 35,000  Level Aus ATC (RADAR)
09:49PM -30.6520 156.1110 48° Northeast 535 616 35,000  Level FlightAware
09:50PM -30.6000 156.1750 47° Northeast 535 616 35,000  Level FlightAware
09:51PM -30.5490 156.2400 48° Northeast 535 616 35,000  Level FlightAware
09:51PM -30.4970 156.3040 47° Northeast 535 616 35,000  Level FlightAware
09:52PM -30.4450 156.3680 47° Northeast 535 616 35,000  Level FlightAware
09:52PM -30.3940 156.4320 47° Northeast 535 616 35,000  Level FlightAware
09:53PM -30.3420 156.4970 47° Northeast 535 616 35,000  Level FlightAware
09:54PM -30.2900 156.5610 47° Northeast 535 616 35,000  Level FlightAware
09:54PM -30.2370 156.6270 47° Northeast 535 616 35,000  Level FlightAware
09:55PM -30.1860 156.6910 47° Northeast 535 616 35,000 60 Level FlightAware
09:55PM -30.0154 156.9580 47° Northeast 529 609 35,100  Climbing Aus ATC (RADAR)
09:55PM -30.1340 156.7550 47° Northeast 535 616 35,000 -180 Descending FlightAware
09:56PM -30.0810 156.8210 47° Northeast 535 616 35,000  Level FlightAware
09:57PM -30.0290 156.8850 47° Northeast 535 616 35,000 60 Level FlightAware
09:57PM -29.8286 157.1998 47° Northeast 526 605 35,100 60 Climbing Aus ATC (RADAR)
09:58PM -29.7707 157.2735 48° Northeast 527 606 35,100  Level Aus ATC (RADAR)
09:59PM -29.6967 157.3682 48° Northeast 528 608 35,100  Level Aus ATC (RADAR)
09:59PM -29.6312 157.4520 48° Northeast 529 609 35,100  Level Aus ATC (RADAR)
10:00PM -29.5571 157.5463 48° Northeast 528 608 35,100  Level Aus ATC (RADAR)
10:00PM -29.5489 157.5569 48° Northeast 528 608 35,100  Level Aus ATC (RADAR)
10:01PM -29.4180 157.7242 48° Northeast 525 604 35,100  Level Aus ATC (RADAR)
10:02PM -29.3590 157.7983 48° Northeast 529 609 35,100  Level Aus ATC (RADAR)
10:02PM -29.3502 157.8091 47° Northeast 531 611 35,100  Level Aus ATC (RADAR)
10:04PM -29.1732 158.0299 47° Northeast 559 643 35,100  Level Aus ATC (RADAR)
10:04PM -29.1157 158.1034 48° Northeast 538 619 35,100  Level Aus ATC (RADAR)
10:05PM -29.0310 158.2065 47° Northeast 536 617 35,100 -60 Level Aus ATC (RADAR)
10:10PM -28.5463 158.8115 47° Northeast 37,000 -60 Climbing Aus ATC (Calculated)
10:12PM -28.3933 159.0006 47° Northeast  Level FlightAware Approximate
10:13PM -28.3014 159.1138 47° Northeast  Level FlightAware Approximate
10:13PM -28.2175 159.2155 47° Northeast 37,000  Level Aus ATC (Calculated)
10:15PM -28.3579 159.0484 226° Southwest  Level FlightAware Approximate
10:15PM -28.0182 159.4584 47° Northeast 37,000  Level Aus ATC (Calculated)
10:16PM -28.2643 159.1598 46° Northeast  Level FlightAware Approximate
10:17PM -28.1694 159.2750 227° Southwest  Level FlightAware Approximate
10:18PM -28.2619 159.1624 227° Southwest  Level FlightAware Approximate
10:18PM -27.6903 159.8549 47° Northeast 37,000  Level Aus ATC (Calculated)
10:20PM -27.5339 160.0016 47° Northeast  Level Estimated
10:21PM -27.4416 160.1136 47° Northeast  Level FlightAware Approximate
10:22PM -27.3493 160.2254 47° Northeast  Level FlightAware Approximate
10:23PM -27.2568 160.3370 47° Northeast  Level FlightAware Approximate
10:23PM -27.2295 160.4060 47° Northeast 37,000  Level Aus ATC (Calculated)
10:23PM -27.1947 160.4473 47° Northeast 37,000 -60 Level Aus ATC (Calculated)
10:24PM -27.0577 160.6097 46° Northeast 37,000 -60 Level Aus ATC (Calculated)
10:25PM -27.0392 160.6315 47° Northeast  Level FlightAware Approximate
10:25PM -26.9934 160.6857 46° Northeast 37,000  Level Aus ATC (Calculated)
10:26PM -26.9612 160.7237 46° Northeast  Level FlightAware Approximate
10:26PM -26.9310 160.7592 46° Northeast 37,000  Level Aus ATC (Calculated)
10:28PM -26.7579 160.9627 46° Northeast  Level FlightAware Approximate
10:29PM -26.6643 161.0724 46° Northeast  Level FlightAware Approximate
10:30PM -26.5705 161.1820 46° Northeast  Level FlightAware Approximate
10:31PM -26.4767 161.2914 46° Northeast  Level FlightAware Approximate
10:32PM -26.3827 161.4006 46° Northeast  Level FlightAware Approximate
10:33PM -26.2887 161.5096 46° Northeast  Level FlightAware Approximate
10:34PM -26.1946 161.6184 46° Northeast  Level FlightAware Approximate
10:35PM -26.1005 161.7271 46° Northeast  Level FlightAware Approximate
10:36PM -26.0062 161.8356 46° Northeast  Level FlightAware Approximate
10:37PM -25.9118 161.9439 46° Northeast  Level FlightAware Approximate
10:38PM -25.8174 162.0520 46° Northeast  Level FlightAware Approximate
10:39PM -25.7229 162.1600 46° Northeast  Level FlightAware Approximate
10:40PM -25.6283 162.2678 46° Northeast  Level FlightAware Approximate
10:41PM -25.5337 162.3754 46° Northeast  Level FlightAware Approximate
10:41PM -25.4096 162.5161 46° Northeast 37,000  Level Aus ATC (Calculated)
10:42PM -25.3148 162.6233 46° Northeast  Level FlightAware Approximate
10:43PM -25.2199 162.7304 46° Northeast  Level FlightAware Approximate
10:44PM -25.1249 162.8373 46° Northeast  Level FlightAware Approximate
10:45PM -25.0298 162.9440 45° Northeast  Level FlightAware Approximate
10:46PM -24.9347 163.0506 45° Northeast  Level FlightAware Approximate
10:47PM -25.0298 162.9440 225° Southwest  Level FlightAware Approximate
10:48PM -24.9347 163.0506 45° Northeast  Level FlightAware Approximate
10:49PM -25.0298 162.9440 225° Southwest  Level FlightAware Approximate
10:50PM -24.9347 163.0506 45° Northeast  Level FlightAware Approximate
10:51PM -25.0298 162.9440 225° Southwest  Level FlightAware Approximate
10:52PM -24.9347 163.0506 45° Northeast  Level FlightAware Approximate
10:53PM -25.0298 162.9440 225° Southwest  Level FlightAware Approximate
10:54PM -24.9347 163.0506 45° Northeast  Level FlightAware Approximate
10:55PM -24.9376 163.0472 45° Northeast  Level FlightAware Approximate
10:56PM -24.8423 163.1535 45° Northeast  Level FlightAware Approximate
10:57PM -24.7469 163.2596 45° Northeast  Level FlightAware Approximate
10:58PM -24.6515 163.3656 45° Northeast  Level FlightAware Approximate
10:59PM -24.5559 163.4714 45° Northeast  Level FlightAware Approximate
10:59PM -23.5170 164.6070 45° Northeast 532 612 35,000  Level FlightAware
11:00PM -24.4603 163.5771 45° Northeast  Level FlightAware Approximate
11:00PM -23.4560 164.6720 44° Northeast 532 612 35,000  Level FlightAware
11:01PM -23.3710 164.7630 45° Northeast 533 613 35,000  Level FlightAware
11:01PM -23.3070 164.8330 45° Northeast 533 613 35,000  Level FlightAware
11:02PM -23.2420 164.9030 45° Northeast 533 613 35,000  Level FlightAware
11:02PM -23.1860 164.9620 44° Northeast 533 613 35,000  Level FlightAware
11:03PM -23.1220 165.0320 45° Northeast 532 612 35,000  Level FlightAware
11:04PM -23.0590 165.0980 44° Northeast 531 611 35,000  Level FlightAware
11:04PM -23.0000 165.1620 45° Northeast 531 611 35,000  Level FlightAware
11:05PM -22.9370 165.2290 44° Northeast 528 608 35,000  Level FlightAware
11:05PM -22.8800 165.2890 44° Northeast 526 605 35,000  Level FlightAware
11:06PM -22.8170 165.3560 44° Northeast 526 605 35,000  Level FlightAware
11:06PM -22.7540 165.4230 44° Northeast 525 604 35,000  Level FlightAware
11:07PM -22.6920 165.4890 44° Northeast 523 602 35,000  Level FlightAware
11:08PM -22.6370 165.5470 44° Northeast 524 603 35,000  Level FlightAware
11:08PM -22.5760 165.6120 45° Northeast 524 603 35,000  Level FlightAware
11:09PM -22.5140 165.6780 45° Northeast 523 602 35,000  Level FlightAware
11:09PM -22.4550 165.7400 44° Northeast 524 603 35,000  Level FlightAware
11:10PM -22.3910 165.8080 44° Northeast 525 604 35,000  Level FlightAware
11:10PM -22.3340 165.8680 44° Northeast 526 605 35,000  Level FlightAware
11:11PM -22.2720 165.9330 44° Northeast 526 605 35,000  Level FlightAware
11:12PM -22.2120 165.9950 44° Northeast 526 605 35,000  Level FlightAware
11:12PM -22.1470 166.0630 44° Northeast 528 608 35,000  Level FlightAware
11:13PM -22.0920 166.1220 45° Northeast 532 612 35,000  Level FlightAware
11:13PM -22.0290 166.1840 42° Northeast 536 617 35,000  Level FlightAware
11:14PM -21.9470 166.2390 32° Northeast 538 619 35,000  Level FlightAware
11:15PM -21.8660 166.2790 25° Northeast 537 618 35,000  Level FlightAware
11:15PM -21.7840 166.3180 24° Northeast 536 617 35,000  Level FlightAware
11:16PM -21.7090 166.3540 24° Northeast 538 619 35,000  Level FlightAware
11:16PM -21.6280 166.3930 24° Northeast 537 618 35,000  Level FlightAware
11:17PM -21.5460 166.4320 24° Northeast 538 619 35,000  Level FlightAware
11:18PM -21.4640 166.4710 24° Northeast 538 619 35,000  Level FlightAware
11:18PM -21.3900 166.5060 24° Northeast 538 619 35,000  Level FlightAware
11:19PM -21.3080 166.5450 24° Northeast 538 619 35,000  Level FlightAware
11:19PM -21.2310 166.5820 24° Northeast 538 619 35,000  Level FlightAware
11:20PM -21.1500 166.6200 24° Northeast 539 620 35,000  Level FlightAware
11:20PM -21.0660 166.6600 24° Northeast 540 621 35,000  Level FlightAware
11:21PM -20.9950 166.6940 24° Northeast 541 623 35,000  Level FlightAware
11:22PM -20.9080 166.7340 23° Northeast 541 623 35,000  Level FlightAware
11:22PM -20.8300 166.7720 24° Northeast 543 625 35,000  Level FlightAware
11:23PM -20.7440 166.8120 24° Northeast 542 624 35,000  Level FlightAware
11:23PM -20.6640 166.8500 24° Northeast 544 626 35,000  Level FlightAware
11:24PM -20.5900 166.8850 24° Northeast 539 620 35,000  Level FlightAware
11:25PM -20.4860 166.9330 23° Northeast 531 611 35,000  Level FlightAware
11:25PM -20.4170 166.9640 23° Northeast 531 611 35,000  Level FlightAware
11:26PM -20.3440 166.9970 23° Northeast 531 611 35,000  Level FlightAware
11:27PM -20.2740 167.0280 23° Northeast 531 611 35,000  Level FlightAware
11:27PM -20.2050 167.0600 24° Northeast 531 611 35,000  Level FlightAware
11:28PM -20.1340 167.0920 23° Northeast 531 611 35,000  Level FlightAware
11:28PM -20.0650 167.1230 23° Northeast 531 611 35,000  Level FlightAware
11:29PM -19.9960 167.1540 23° Northeast 531 611 35,000  Level FlightAware
11:30PM -19.9230 167.1870 23° Northeast 531 611 35,000  Level FlightAware
11:30PM -19.8520 167.2200 24° Northeast 531 611 35,000  Level FlightAware
11:31PM -19.7820 167.2510 23° Northeast 531 611 35,000  Level FlightAware
11:31PM -19.7110 167.2830 23° Northeast 531 611 35,000  Level FlightAware
11:32PM -19.6420 167.3140 23° Northeast 531 611 35,000  Level FlightAware
11:33PM -19.5730 167.3450 23° Northeast 531 611 35,000  Level FlightAware
11:33PM -19.5040 167.3760 23° Northeast 531 611 35,000  Level FlightAware
11:34PM -19.4340 167.4080 23° Northeast 531 611 35,000  Level FlightAware
11:36PM -19.2272 167.5082 25° Northeast  Level FlightAware Approximate
11:37PM -19.1031 167.5681 25° Northeast  Level FlightAware Approximate
11:38PM -18.9790 167.6280 25° Northeast  Level FlightAware Approximate
11:39PM -18.8549 167.6878 25° Northeast  Level FlightAware Approximate
11:40PM -18.7307 167.7475 24° Northeast  Level FlightAware Approximate
11:41PM -18.6065 167.8072 24° Northeast  Level FlightAware Approximate
11:42PM -18.4819 167.8659 24° Northeast  Level FlightAware Approximate
11:43PM -18.3570 167.9238 24° Northeast  Level FlightAware Approximate
11:44PM -18.2321 167.9815 24° Northeast  Level FlightAware Approximate
11:45PM -18.1072 168.0392 24° Northeast  Level FlightAware Approximate
11:46PM -17.9823 168.0968 24° Northeast  Level FlightAware Approximate
11:47PM -17.8573 168.1543 24° Northeast  Level FlightAware Approximate
11:48PM -17.7323 168.2117 24° Northeast  Level FlightAware Approximate
11:49PM -17.6621 168.2439 24° Northeast  Level FlightAware Approximate
11:50PM -17.6993 168.3198 24° Northeast  Level Estimated
11:51PM -17.6993 168.3198 24° Northeast  Level Estimated
11:52PM -17.6993 168.3198 24° Northeast  Level Estimated
11:53PM -17.6993 168.3198 24° Northeast  Level Estimated
11:54PM -17.6993 168.3198 24° Northeast  Level Estimated
11:55PM -17.6993 168.3198 24° Northeast  Level Estimated
11:56PM -17.6993 168.3198 24° Northeast  Level Estimated
11:57PM -17.6993 168.3198 24° Northeast  Level Estimated
11:58PM -17.6993 168.3198 24° Northeast  Level Estimated
11:59PM -17.6993 168.3198 24° Northeast  Level Estimated
12:00AM -17.6993 168.3198 24° Northeast  Level Estimated
12:01AM -17.6993 168.3198 24° Northeast  Level Estimated
12:02AM -17.6993 168.3198 24° Northeast  Level Estimated
12:03AM -17.6993 168.3198 24° Northeast  Level Estimated
12:04AM -17.6993 168.3198 24° Northeast  Level Estimated
12:05AM -17.6993 168.3198 24° Northeast  Level Estimated
12:06AM -17.6993 168.3198 24° Northeast  Level Estimated
12:07AM -17.6993 168.3198 24° Northeast  Level Estimated
12:08AM -17.6993 168.3198 24° Northeast  Level Estimated